createdAt,value
2019-02-15T00:01:31.884Z,9.87
2019-02-15T00:04:02.536Z,11.87
2019-02-15T00:06:33.057Z,11.47
2019-02-15T00:09:03.885Z,9.47
2019-02-15T00:11:34.289Z,16.53
2019-02-15T00:14:04.701Z,11.00
2019-02-15T00:16:35.139Z,11.33
2019-02-15T00:19:13.580Z,10.60
2019-02-15T00:21:46.458Z,8.83
2019-02-15T00:24:16.672Z,10.33
2019-02-15T00:26:47.327Z,10.23
2019-02-15T00:29:17.756Z,11.40
2019-02-15T00:31:48.168Z,11.00
2019-02-15T00:34:18.841Z,11.77
2019-02-15T00:36:49.233Z,10.13
2019-02-15T00:39:19.179Z,11.63
2019-02-15T00:41:49.449Z,9.73
2019-02-15T00:44:20.095Z,9.63
2019-02-15T00:47:21.950Z,9.80
2019-02-15T00:49:59.333Z,10.30
2019-02-15T00:52:40.559Z,9.83
2019-02-15T00:55:47.573Z,12.27
2019-02-15T00:58:31.518Z,8.90
2019-02-15T01:01:18.329Z,10.00
2019-02-15T01:03:57.611Z,13.10
2019-02-15T01:06:49.876Z,13.73
2019-02-15T01:09:27.869Z,9.50
2019-02-15T01:12:04.895Z,16.60
2019-02-15T01:14:35.343Z,16.20
2019-02-15T01:17:07.515Z,15.87
2019-02-15T01:19:37.791Z,14.63
2019-02-15T01:22:08.084Z,8.93
2019-02-15T01:24:38.246Z,20.77
2019-02-15T01:27:33.828Z,9.40
2019-02-15T01:30:21.921Z,10.33
2019-02-15T01:33:02.735Z,11.77
2019-02-15T01:35:44.688Z,12.67
2019-02-15T01:38:29.591Z,13.77
2019-02-15T01:41:27.371Z,11.93
2019-02-15T01:44:20.675Z,10.17
2019-02-15T01:46:58.337Z,13.07
2019-02-15T01:49:28.789Z,14.30
2019-02-15T01:51:59.305Z,13.90
2019-02-15T01:54:29.987Z,10.90
2019-02-15T01:57:00.387Z,11.97
2019-02-15T01:59:30.624Z,11.20
2019-02-15T02:02:00.542Z,10.00
2019-02-15T02:04:30.763Z,10.63
2019-02-15T02:07:01.478Z,12.03
2019-02-15T02:09:31.909Z,11.37
2019-02-15T02:12:02.571Z,10.13
2019-02-15T02:14:33.086Z,10.90
2019-02-15T02:17:03.681Z,10.17
2019-02-15T02:19:34.529Z,10.57
2019-02-15T02:22:05.004Z,12.27
2019-02-15T02:24:35.450Z,10.93
2019-02-15T02:27:05.563Z,11.47
2019-02-15T02:29:35.981Z,9.83
2019-02-15T02:32:06.523Z,10.50
2019-02-15T02:34:37.003Z,9.73
2019-02-15T02:37:07.165Z,10.90
2019-02-15T02:39:37.380Z,11.90
2019-02-15T02:42:07.875Z,11.00
2019-02-15T02:44:38.291Z,11.97
2019-02-15T02:47:08.513Z,10.70
2019-02-15T02:49:39.417Z,19.00
2019-02-15T02:52:09.324Z,9.23
2019-02-15T02:54:39.785Z,13.60
2019-02-15T02:57:10.006Z,11.50
2019-02-15T02:59:40.192Z,11.30
2019-02-15T03:02:10.661Z,18.00
2019-02-15T03:04:41.098Z,12.43
2019-02-15T03:07:12.030Z,12.17
2019-02-15T03:09:42.282Z,10.13
2019-02-15T03:12:12.767Z,10.30
2019-02-15T03:14:43.220Z,10.43
2019-02-15T03:17:14.142Z,13.63
2019-02-15T03:19:44.823Z,12.27
2019-02-15T03:22:14.775Z,15.20
2019-02-15T03:24:45.425Z,13.50
2019-02-15T03:27:15.902Z,11.10
2019-02-15T03:29:45.860Z,10.97
2019-02-15T03:32:16.530Z,13.00
2019-02-15T03:34:46.764Z,12.93
2019-02-15T03:37:33.474Z,12.70
2019-02-15T03:40:20.574Z,12.10
2019-02-15T03:42:50.753Z,12.73
2019-02-15T03:45:20.777Z,12.47
2019-02-15T03:47:51.241Z,9.17
2019-02-15T03:50:21.688Z,10.53
2019-02-15T03:52:52.493Z,13.47
2019-02-15T03:55:23.201Z,9.70
2019-02-15T03:57:53.394Z,9.23
2019-02-15T04:00:23.644Z,10.53
2019-02-15T04:02:54.189Z,13.70
2019-02-15T04:05:24.635Z,11.90
2019-02-15T04:07:54.560Z,12.33
2019-02-15T04:10:24.701Z,9.40
2019-02-15T04:12:54.903Z,10.87
2019-02-15T04:15:25.043Z,15.10
2019-02-15T04:17:55.515Z,11.60
2019-02-15T04:20:25.938Z,10.73
2019-02-15T04:22:56.153Z,12.87
2019-02-15T04:25:26.442Z,13.70
2019-02-15T04:27:56.633Z,12.30
2019-02-15T04:30:26.789Z,15.60
2019-02-15T04:32:57.308Z,12.37
2019-02-15T04:35:27.508Z,10.80
2019-02-15T04:37:58.159Z,11.33
2019-02-15T04:40:28.360Z,18.30
2019-02-15T04:42:58.506Z,11.53
2019-02-15T04:45:28.542Z,11.00
2019-02-15T04:47:58.953Z,11.00
2019-02-15T04:50:29.089Z,11.70
2019-02-15T04:53:02.808Z,10.43
2019-02-15T04:55:31.697Z,11.80
2019-02-15T04:58:01.608Z,10.30
2019-02-15T05:00:31.872Z,10.27
2019-02-15T05:03:02.511Z,11.00
2019-02-15T05:05:33.159Z,8.50
2019-02-15T05:08:03.853Z,9.50
2019-02-15T05:10:34.752Z,10.53
2019-02-15T05:13:04.954Z,10.03
2019-02-15T05:15:35.326Z,15.27
2019-02-15T05:18:05.503Z,11.73
2019-02-15T05:20:35.679Z,8.93
2019-02-15T05:23:05.895Z,9.53
2019-02-15T05:25:36.567Z,10.30
2019-02-15T05:28:08.987Z,11.37
2019-02-15T05:30:39.415Z,8.10
2019-02-15T05:33:09.843Z,14.43
2019-02-15T05:35:40.043Z,10.97
2019-02-15T05:38:09.931Z,8.40
2019-02-15T05:40:40.136Z,9.60
2019-02-15T05:43:10.345Z,8.67
2019-02-15T05:45:40.557Z,10.67
2019-02-15T05:48:10.741Z,11.87
2019-02-15T05:50:41.071Z,10.47
2019-02-15T05:53:11.514Z,8.40
2019-02-15T05:55:41.955Z,7.30
2019-02-15T05:58:12.896Z,7.60
2019-02-15T06:00:43.098Z,13.50
2019-02-15T06:03:13.924Z,10.07
2019-02-15T06:05:44.119Z,8.30
2019-02-15T06:08:14.375Z,7.33
2019-02-15T06:10:45.069Z,10.40
2019-02-15T06:13:15.042Z,9.90
2019-02-15T06:15:45.529Z,11.93
2019-02-15T06:18:15.478Z,15.27
2019-02-15T06:20:45.970Z,9.30
2019-02-15T06:23:16.503Z,11.13
2019-02-15T06:25:46.429Z,12.43
2019-02-15T06:28:16.865Z,9.70
2019-02-15T06:30:46.996Z,11.90
2019-02-15T06:33:17.437Z,13.47
2019-02-15T06:35:47.358Z,8.83
2019-02-15T06:38:17.287Z,20.30
2019-02-15T06:40:47.694Z,10.40
2019-02-15T06:43:17.607Z,11.83
2019-02-15T06:45:47.602Z,12.73
2019-02-15T06:48:17.739Z,11.63
2019-02-15T06:50:47.904Z,8.83
2019-02-15T06:53:18.077Z,9.23
2019-02-15T06:55:48.073Z,11.37
2019-02-15T06:58:18.504Z,9.80
2019-02-15T07:00:59.816Z,11.50
2019-02-15T07:04:06.923Z,11.03
2019-02-15T07:06:37.385Z,10.43
2019-02-15T07:09:07.741Z,13.13
2019-02-15T07:11:38.394Z,11.80
2019-02-15T07:14:08.310Z,14.20
2019-02-15T07:16:38.738Z,10.60
2019-02-15T07:19:09.285Z,8.90
2019-02-15T07:21:39.502Z,11.00
2019-02-15T07:24:09.662Z,12.73
2019-02-15T07:26:39.590Z,10.20
2019-02-15T07:29:09.759Z,12.30
2019-02-15T07:31:39.945Z,8.70
2019-02-15T07:34:10.645Z,11.77
2019-02-15T07:36:41.086Z,8.73
2019-02-15T07:39:11.023Z,14.67
2019-02-15T07:41:41.403Z,14.30
2019-02-15T07:44:11.830Z,9.57
2019-02-15T07:46:42.254Z,8.83
2019-02-15T07:49:12.672Z,8.67
2019-02-15T07:51:42.838Z,12.43
2019-02-15T07:54:13.264Z,10.40
2019-02-15T07:56:43.679Z,11.83
2019-02-15T07:59:13.862Z,21.37
2019-02-15T08:01:44.060Z,7.93
2019-02-15T08:04:14.209Z,7.70
2019-02-15T08:10:58.118Z,9.77
2019-02-15T08:13:27.980Z,11.63
2019-02-15T08:15:57.885Z,14.03
2019-02-15T08:18:28.260Z,11.43
2019-02-15T08:20:58.449Z,8.70
2019-02-15T08:23:28.621Z,12.20
2019-02-15T08:25:58.762Z,10.73
2019-02-15T08:28:29.422Z,12.47
2019-02-15T08:30:59.341Z,8.50
2019-02-15T08:33:29.740Z,8.63
2019-02-15T08:36:00.185Z,8.50
2019-02-15T08:38:30.318Z,9.90
2019-02-15T08:41:00.698Z,9.33
2019-02-15T08:43:31.127Z,10.13
2019-02-15T08:46:03.340Z,7.47
2019-02-15T08:48:33.145Z,9.30
2019-02-15T08:51:03.806Z,9.47
2019-02-15T08:53:33.766Z,8.20
2019-02-15T08:56:03.684Z,16.30
2019-02-15T08:58:34.296Z,10.87
2019-02-15T09:01:04.198Z,9.17
2019-02-15T09:03:34.333Z,11.17
2019-02-15T09:06:04.497Z,8.87
2019-02-15T09:08:35.174Z,12.10
2019-02-15T09:11:05.175Z,8.90
2019-02-15T09:13:35.100Z,9.57
2019-02-15T09:16:10.300Z,7.40
2019-02-15T09:18:36.982Z,11.63
2019-02-15T09:21:07.420Z,10.80
2019-02-15T09:23:37.601Z,10.10
2019-02-15T09:26:07.509Z,9.53
2019-02-15T09:28:50.438Z,8.23
2019-02-15T09:31:20.604Z,8.80
2019-02-15T09:33:50.606Z,7.00
2019-02-15T09:36:20.517Z,8.57
2019-02-15T09:38:50.739Z,9.00
2019-02-15T09:41:21.628Z,5.37
2019-02-15T09:43:52.336Z,8.07
2019-02-15T09:46:23.027Z,6.40
2019-02-15T09:48:53.426Z,8.87
2019-02-15T09:55:23.425Z,6.17
2019-02-15T09:57:53.818Z,5.93
2019-02-15T10:00:23.756Z,6.47
2019-02-15T10:02:53.889Z,8.20
2019-02-15T10:05:24.337Z,9.20
2019-02-15T10:07:54.822Z,10.60
2019-02-15T10:10:25.000Z,9.40
2019-02-15T10:12:55.249Z,7.07
2019-02-15T10:15:25.288Z,7.70
2019-02-15T10:17:55.752Z,10.43
2019-02-15T10:20:26.175Z,10.03
2019-02-15T10:22:56.366Z,9.57
2019-02-15T10:25:26.761Z,6.97
2019-02-15T10:27:56.933Z,6.77
2019-02-15T10:30:27.622Z,11.20
2019-02-15T10:32:57.825Z,7.90
2019-02-15T10:35:28.039Z,7.53
2019-02-15T10:37:58.193Z,8.33
2019-02-15T10:40:28.389Z,8.60
2019-02-15T10:42:58.282Z,7.33
2019-02-15T10:45:28.243Z,7.63
2019-02-15T10:47:58.158Z,8.53
2019-02-15T10:54:15.491Z,10.80
2019-02-15T10:56:45.589Z,9.63
2019-02-15T10:59:15.747Z,8.93
2019-02-15T11:01:45.646Z,13.00
2019-02-15T11:04:15.506Z,6.37
2019-02-15T11:06:45.861Z,11.70
2019-02-15T11:09:15.819Z,10.47
2019-02-15T11:11:46.154Z,7.87
2019-02-15T11:14:16.220Z,8.40
2019-02-15T11:16:47.561Z,7.73
2019-02-15T11:19:17.529Z,10.60
2019-02-15T11:21:47.480Z,9.03
2019-02-15T11:24:17.569Z,9.93
2019-02-15T11:26:47.700Z,10.70
2019-02-15T11:29:17.577Z,9.77
2019-02-15T11:31:47.793Z,7.50
2019-02-15T11:34:17.673Z,10.53
2019-02-15T11:36:47.783Z,8.67
2019-02-15T11:39:17.840Z,11.00
2019-02-15T11:41:47.663Z,9.27
2019-02-15T11:44:17.766Z,17.07
2019-02-15T11:46:56.307Z,17.23
2019-02-15T11:49:19.419Z,12.83
2019-02-15T11:51:49.509Z,8.37
2019-02-15T11:54:23.618Z,11.67
2019-02-15T11:56:50.995Z,10.20
2019-02-15T11:59:21.075Z,6.60
2019-02-15T12:01:51.187Z,7.50
2019-02-15T12:04:21.316Z,6.87
2019-02-15T12:06:51.220Z,9.63
2019-02-15T12:09:21.333Z,10.23
2019-02-15T12:11:51.784Z,8.23
2019-02-15T12:14:21.670Z,7.83
2019-02-15T12:16:51.740Z,6.73
2019-02-15T12:19:21.849Z,7.67
2019-02-15T12:21:51.713Z,9.17
2019-02-15T12:24:21.616Z,9.63
2019-02-15T12:26:51.976Z,8.70
2019-02-15T12:29:21.834Z,6.37
2019-02-15T12:31:51.930Z,7.80
2019-02-15T12:34:21.819Z,8.30
2019-02-15T12:36:51.654Z,6.80
2019-02-15T12:39:21.822Z,9.23
2019-02-15T12:41:51.947Z,8.97
2019-02-15T12:44:21.806Z,7.60
2019-02-15T12:46:51.906Z,11.53
2019-02-15T12:49:21.896Z,10.60
2019-02-15T12:51:51.779Z,7.90
2019-02-15T12:54:21.701Z,8.60
2019-02-15T12:56:51.534Z,13.87
2019-02-15T12:59:21.482Z,11.40
2019-02-15T13:01:51.423Z,13.07
2019-02-15T13:04:21.358Z,10.40
2019-02-15T13:06:51.183Z,9.20
2019-02-15T13:09:21.346Z,8.60
2019-02-15T13:11:51.155Z,7.00
2019-02-15T13:14:21.266Z,7.80
2019-02-15T13:16:51.395Z,7.33
2019-02-15T13:19:21.565Z,6.60
2019-02-15T13:21:51.509Z,11.63
2019-02-15T13:24:21.866Z,9.53
2019-02-15T13:26:51.996Z,8.33
2019-02-15T13:29:22.085Z,7.80
2019-02-15T13:31:52.202Z,9.63
2019-02-15T13:34:22.302Z,19.20
2019-02-15T13:36:52.133Z,11.57
2019-02-15T13:39:22.254Z,7.17
2019-02-15T13:41:52.118Z,4.97
2019-02-15T13:44:21.937Z,6.17
2019-02-15T13:46:51.950Z,4.10
2019-02-15T13:49:22.076Z,7.43
2019-02-15T13:51:52.163Z,3.63
2019-02-15T13:54:21.974Z,3.80
2019-02-15T13:56:51.828Z,6.10
2019-02-15T13:59:21.672Z,6.73
2019-02-15T14:01:51.526Z,4.10
2019-02-15T14:04:21.658Z,4.60
2019-02-15T14:06:55.609Z,8.43
2019-02-15T14:09:26.243Z,8.93
2019-02-15T14:11:56.125Z,5.70
2019-02-15T14:14:26.002Z,5.70
2019-02-15T14:16:55.843Z,11.60
2019-02-15T14:19:25.898Z,5.20
2019-02-15T14:21:56.251Z,4.53
2019-02-15T14:24:26.322Z,4.50
2019-02-15T14:26:56.258Z,4.70
2019-02-15T14:29:26.446Z,7.43
2019-02-15T14:31:56.330Z,5.97
2019-02-15T14:34:26.953Z,5.23
2019-02-15T14:36:57.014Z,6.83
2019-02-15T14:39:27.084Z,8.00
2019-02-15T14:41:57.396Z,8.97
2019-02-15T14:44:27.276Z,6.80
2019-02-15T14:46:57.415Z,6.20
2019-02-15T14:49:27.627Z,5.03
2019-02-15T14:51:57.767Z,7.27
2019-02-15T14:54:27.600Z,7.10
2019-02-15T14:56:57.709Z,6.37
2019-02-15T14:59:27.816Z,6.40
2019-02-15T15:01:58.145Z,8.13
2019-02-15T15:04:28.002Z,7.83
2019-02-15T15:06:58.141Z,7.60
2019-02-15T15:09:27.968Z,5.87
2019-02-15T15:11:57.912Z,6.50
2019-02-15T15:14:27.782Z,6.80
2019-02-15T15:16:58.012Z,7.83
2019-02-15T15:19:27.966Z,5.60
2019-02-15T15:21:58.000Z,6.40
2019-02-15T15:24:28.523Z,7.10
2019-02-15T15:26:58.886Z,6.40
2019-02-15T15:29:28.773Z,7.83
2019-02-15T15:31:58.861Z,9.67
2019-02-15T15:34:28.781Z,6.57
2019-02-15T15:36:58.865Z,6.57
2019-02-15T15:39:28.835Z,9.50
2019-02-15T15:41:58.698Z,8.23
2019-02-15T15:44:28.575Z,7.47
2019-02-15T15:46:58.388Z,9.30
2019-02-15T15:49:28.271Z,9.30
2019-02-15T15:51:58.577Z,8.90
2019-02-15T15:54:28.423Z,9.00
2019-02-15T15:56:58.345Z,6.50
2019-02-15T15:59:28.193Z,10.67
2019-02-15T16:01:58.046Z,7.13
2019-02-15T16:04:27.901Z,7.67
2019-02-15T16:06:58.265Z,10.50
2019-02-15T16:09:28.462Z,8.00
2019-02-15T16:11:58.301Z,7.77
2019-02-15T16:14:28.392Z,6.87
2019-02-15T16:16:58.504Z,6.83
2019-02-15T16:19:28.384Z,6.53
2019-02-15T16:21:58.244Z,20.87
2019-02-15T16:24:28.138Z,8.10
2019-02-15T16:26:57.981Z,6.90
2019-02-15T16:29:27.852Z,10.57
2019-02-15T16:31:57.682Z,10.50
2019-02-15T16:34:27.563Z,9.83
2019-02-15T16:36:57.416Z,7.93
2019-02-15T16:39:27.706Z,10.93
2019-02-15T16:41:57.570Z,13.10
2019-02-15T16:44:27.664Z,10.60
2019-02-15T16:46:57.526Z,11.00
2019-02-15T16:49:27.431Z,8.10
2019-02-15T16:51:57.237Z,10.53
2019-02-15T16:54:27.076Z,9.80
2019-02-15T16:56:57.163Z,9.60
2019-02-15T16:59:27.003Z,10.43
2019-02-15T17:01:57.134Z,10.10
2019-02-15T17:04:27.242Z,10.20
2019-02-15T17:06:57.095Z,9.83
2019-02-15T17:09:27.217Z,9.80
2019-02-15T17:11:57.386Z,9.50
2019-02-15T17:14:27.217Z,8.33
2019-02-15T17:16:57.035Z,11.93
2019-02-15T17:19:27.239Z,13.90
2019-02-15T17:21:57.111Z,13.33
2019-02-15T17:24:26.948Z,18.80
2019-02-15T17:26:56.815Z,16.50
2019-02-15T17:29:26.677Z,13.57
2019-02-15T17:31:56.522Z,11.23
2019-02-15T17:34:26.381Z,13.07
2019-02-15T17:36:56.256Z,10.33
2019-02-15T17:39:26.144Z,13.17
2019-02-15T17:41:56.210Z,12.77
2019-02-15T17:44:26.550Z,14.67
2019-02-15T17:46:56.683Z,11.13
2019-02-15T17:49:26.701Z,13.27
2019-02-15T17:51:56.815Z,12.30
2019-02-15T17:54:26.940Z,11.77
2019-02-15T17:56:57.118Z,10.20
2019-02-15T17:59:26.948Z,12.73
2019-02-15T18:01:57.089Z,12.17
2019-02-15T18:04:26.993Z,10.47
2019-02-15T18:06:57.138Z,14.33
2019-02-15T18:09:27.244Z,15.33
2019-02-15T18:11:57.408Z,11.67
2019-02-15T18:14:27.506Z,11.67
2019-02-15T18:16:59.076Z,10.53
2019-02-15T18:19:29.158Z,11.73
2019-02-15T18:21:59.069Z,11.73
2019-02-15T18:24:28.953Z,13.63
2019-02-15T18:26:58.770Z,10.17
2019-02-15T18:29:28.648Z,12.23
2019-02-15T18:31:58.508Z,10.10
2019-02-15T18:34:28.604Z,12.80
2019-02-15T18:36:58.485Z,11.50
2019-02-15T18:39:28.580Z,11.83
2019-02-15T18:41:58.509Z,21.50
2019-02-15T18:44:28.603Z,15.10
2019-02-15T18:46:58.463Z,18.43
2019-02-15T18:49:28.409Z,15.23
2019-02-15T18:51:58.280Z,13.30
2019-02-15T18:54:28.156Z,12.87
2019-02-15T18:56:58.157Z,13.73
2019-02-15T18:59:28.092Z,14.33
2019-02-15T19:01:57.929Z,12.80
2019-02-15T19:04:27.805Z,13.27
2019-02-15T19:06:57.911Z,14.27
2019-02-15T19:09:27.769Z,16.57
2019-02-15T19:11:57.914Z,17.10
2019-02-15T19:14:27.746Z,14.30
2019-02-15T19:16:57.622Z,12.67
2019-02-15T19:19:29.284Z,16.93
2019-02-15T19:21:59.535Z,13.47
2019-02-15T19:24:29.904Z,14.30
2019-02-15T19:26:59.766Z,13.47
2019-02-15T19:29:29.627Z,12.97
2019-02-15T19:31:59.519Z,12.00
2019-02-15T19:34:29.594Z,15.53
2019-02-15T19:36:59.458Z,12.30
2019-02-15T19:39:29.367Z,15.63
2019-02-15T19:41:59.196Z,14.40
2019-02-15T19:44:29.038Z,28.73
2019-02-15T19:46:58.896Z,19.67
2019-02-15T19:49:38.338Z,21.20
2019-02-15T19:52:00.409Z,15.57
2019-02-15T19:54:30.340Z,15.27
2019-02-15T19:57:00.229Z,10.43
2019-02-15T19:59:30.537Z,12.50
2019-02-15T20:02:00.411Z,11.23
2019-02-15T20:04:30.253Z,12.67
2019-02-15T20:07:00.339Z,10.47
2019-02-15T20:09:30.224Z,10.83
2019-02-15T20:12:00.093Z,12.40
2019-02-15T20:14:30.277Z,9.17
2019-02-15T20:17:00.143Z,11.00
2019-02-15T20:19:30.558Z,12.63
2019-02-15T20:22:00.660Z,11.43
2019-02-15T20:24:30.507Z,14.07
2019-02-15T20:27:00.405Z,7.73
2019-02-15T20:29:31.045Z,9.70
2019-02-15T20:32:00.923Z,15.33
2019-02-15T20:34:30.745Z,8.23
2019-02-15T20:37:01.097Z,9.53
2019-02-15T20:39:31.056Z,9.13
2019-02-15T20:42:01.193Z,11.87
2019-02-15T20:44:31.058Z,9.00
2019-02-15T20:47:01.401Z,8.40
2019-02-15T20:49:31.480Z,9.70
2019-02-15T20:52:01.309Z,9.40
2019-02-15T20:54:31.210Z,13.60
2019-02-15T20:57:01.373Z,12.47
2019-02-15T20:59:31.287Z,12.67
2019-02-15T21:02:01.398Z,16.00
2019-02-15T21:04:31.271Z,12.70
2019-02-15T21:07:01.391Z,12.10
2019-02-15T21:09:31.245Z,12.73
2019-02-15T21:12:01.365Z,12.33
2019-02-15T21:14:31.514Z,14.77
2019-02-15T21:17:01.399Z,15.90
2019-02-15T21:19:31.281Z,18.07
2019-02-15T21:22:01.137Z,11.90
2019-02-15T21:24:31.241Z,17.27
2019-02-15T21:27:01.102Z,14.90
2019-02-15T21:29:31.211Z,15.30
2019-02-15T21:32:01.323Z,14.90
2019-02-15T21:34:31.703Z,24.70
2019-02-15T21:37:01.575Z,17.30
2019-02-15T21:39:31.937Z,13.30
2019-02-15T21:42:02.050Z,18.93
2019-02-15T21:44:32.398Z,16.50
2019-02-15T21:47:02.268Z,14.33
2019-02-15T21:49:32.153Z,13.80
2019-02-15T21:52:02.281Z,12.50
2019-02-15T21:54:32.154Z,15.90
2019-02-15T21:57:02.039Z,12.83
2019-02-15T21:59:32.136Z,13.80
2019-02-15T22:02:02.015Z,9.30
2019-02-15T22:04:31.861Z,11.53
2019-02-15T22:07:01.762Z,16.23
2019-02-15T22:09:31.619Z,19.27
2019-02-15T22:12:01.708Z,13.03
2019-02-15T22:14:31.813Z,15.10
2019-02-15T22:17:01.685Z,13.60
2019-02-15T22:19:31.584Z,9.60
2019-02-15T22:22:01.508Z,10.50
2019-02-15T22:24:31.374Z,12.40
2019-02-15T22:27:01.213Z,12.63
2019-02-15T22:29:31.880Z,10.00
2019-02-15T22:32:01.813Z,13.07
2019-02-15T22:34:31.917Z,16.93
2019-02-15T22:37:01.768Z,11.30
2019-02-15T22:39:31.682Z,15.37
2019-02-15T22:42:01.540Z,18.03
2019-02-15T22:44:31.641Z,14.80
2019-02-15T22:47:01.500Z,13.93
2019-02-15T22:49:42.940Z,20.23
2019-02-15T22:52:03.510Z,13.80
2019-02-15T22:54:33.460Z,19.93
2019-02-15T22:57:03.322Z,23.27
2019-02-15T22:59:33.440Z,17.13
2019-02-15T23:02:03.531Z,21.77
2019-02-15T23:04:33.415Z,24.07
2019-02-15T23:07:03.522Z,28.63
2019-02-15T23:09:33.399Z,27.33
2019-02-15T23:12:03.242Z,32.70
2019-02-15T23:14:33.127Z,29.87
2019-02-15T23:17:03.482Z,31.83
2019-02-15T23:19:33.819Z,27.80
2019-02-15T23:22:03.973Z,30.87
2019-02-15T23:24:33.826Z,22.20
2019-02-15T23:27:03.952Z,21.73
2019-02-15T23:29:33.845Z,19.63
2019-02-15T23:32:03.968Z,24.10
2019-02-15T23:34:33.881Z,22.80
2019-02-15T23:37:04.329Z,23.27
2019-02-15T23:39:34.736Z,20.60
2019-02-15T23:42:04.976Z,18.27
2019-02-15T23:44:35.138Z,17.37
2019-02-15T23:47:04.998Z,15.50
2019-02-15T23:49:34.933Z,16.00
2019-02-15T23:52:04.827Z,13.37
2019-02-15T23:54:35.208Z,16.83
2019-02-15T23:57:05.585Z,15.90
2019-02-15T23:59:35.694Z,14.83
